• Join FlightAware (Why Join?)
  • Login
  • US Flag 
03:45PM EDT


 

Airport Tracker/Info


-or-


 

Live Flight TrackerFlight Track Log ✈ EMD27 ✈ 30-Apr-2013 ✈ KROA - KBYL

Flight Track Log - Related Links

Times and Time Zones

All times are in EDT time to prevent confusion due to time zone crossing. See the EMD27 flight status page for this flight to view local times or setup timezone preferences in your user account.

Time Position Orientation Groundspeed Altitude Reporting Facility
EDT Latitude Longitude Course Direction KTS MPH feet Rate Location/Type
01:45AM 37.3089 -80.0172 244° Southwest 134 154 2,000  Level Indianapolis Center
01:46AM 37.2897 -80.0672 244° Southwest 151 174 3,200 1,320 Climbing Indianapolis Center
01:47AM 37.2786 -80.1197 255° West 158 182 4,700 1,380 Climbing Indianapolis Center
01:48AM 37.2778 -80.1706 269° West 154 177 6,100 1,320 Climbing Indianapolis Center
01:49AM 37.2725 -80.2200 262° West 150 173 7,400 1,380 Climbing Indianapolis Center
01:50AM 37.2664 -80.2781 262° West 145 167 8,900 1,320 Climbing Indianapolis Center
01:50AM 37.2656 -80.2919 266° West 166 191 9,100 900 Climbing Washington Center
01:51AM 37.2592 -80.3178 253° West 164 189 9,600 1,320 Climbing Atlanta Center
01:52AM 37.2547 -80.3728 264° West 153 176 11,100 1,140 Climbing Atlanta Center
01:53AM 37.2481 -80.4306 262° West 153 176 11,900 420 Climbing Atlanta Center
01:54AM 37.2417 -80.4986 263° West 184 212 12,000  Climbing Atlanta Center
01:55AM 37.2336 -80.5822 263° West 216 249 12,000  Level Atlanta Center
01:56AM 37.2253 -80.6531 262° West 231 266 12,000  Level Atlanta Center
01:57AM 37.2169 -80.7342 263° West 236 272 12,000  Level Atlanta Center
01:58AM 37.2086 -80.8103 262° West 236 272 12,000  Level Atlanta Center
01:59AM 37.2003 -80.8886 262° West 236 272 12,000  Level Atlanta Center
01:59AM 37.1986 -80.9117 265° West 225 259 12,000  Level Indianapolis Center
02:01AM 37.1825 -81.0639 262° West 224 258 12,000  Level Indianapolis Center
02:02AM 37.1753 -81.1400 263° West 225 259 12,000  Level Indianapolis Center
02:03AM 37.1664 -81.2175 262° West 224 258 12,000  Level Indianapolis Center
02:05AM 37.1666 -81.3178 270° West  Level FlightAware Approximate
02:07AM 37.1294 -81.5431 261° West 225 259 12,000  Level Indianapolis Center
02:08AM 37.1203 -81.6222 262° West 229 264 12,000  Level Indianapolis Center
02:09AM 37.1111 -81.7006 262° West 228 262 12,000  Level Indianapolis Center
02:10AM 37.1025 -81.7783 262° West 226 260 12,000  Level Indianapolis Center
02:11AM 37.0947 -81.8422 261° West 225 259 12,000  Level Indianapolis Center
02:12AM 37.1063 -81.8204 261° West  Level FlightAware Approximate
02:12AM 37.0850 -81.9328 262° West 224 258 12,000  Level Indianapolis Center
02:13AM 37.0747 -82.0100 261° West 224 258 12,000  Level Indianapolis Center
02:14AM 37.0658 -82.0875 262° West 225 259 12,000  Level Indianapolis Center
02:15AM 37.0569 -82.1656 262° West 226 260 12,000  Level Indianapolis Center
02:16AM 37.0464 -82.2442 260° West 229 264 12,000  Level Indianapolis Center
02:17AM 37.0381 -82.3222 262° West 227 261 12,000  Level Indianapolis Center
02:18AM 37.0278 -82.4006 261° West 229 264 12,000  Level Indianapolis Center
02:19AM 37.0192 -82.4781 262° West 226 260 12,000  Level Indianapolis Center
02:20AM 37.0086 -82.5558 260° West 227 261 12,000  Level Indianapolis Center
02:21AM 37.0000 -82.6336 262° West 227 261 12,000  Level Indianapolis Center
02:22AM 36.9894 -82.7122 260° West 227 261 12,000  Level Indianapolis Center
02:23AM 36.9806 -82.7908 262° West 230 265 12,000  Level Indianapolis Center
02:24AM 36.9703 -82.8675 260° West 228 262 12,000  Level Indianapolis Center
02:25AM 36.9619 -82.9450 262° West 231 266 12,000  Level Indianapolis Center
02:26AM 36.9511 -83.0217 260° West 228 262 12,000  Level Indianapolis Center
02:27AM 36.9414 -83.0989 261° West 225 259 12,000  Level Indianapolis Center
02:28AM 36.9308 -83.1750 260° West 225 259 12,000  Level Indianapolis Center
02:29AM 36.9217 -83.2528 262° West 225 259 12,000  Level Indianapolis Center
02:30AM 36.9108 -83.3283 260° West 222 255 12,000 -420 Level Indianapolis Center
02:31AM 36.9011 -83.4092 261° West 235 270 11,200 -1,080 Descending Indianapolis Center
02:32AM 36.8886 -83.4975 260° West 257 296 9,900 -1,320 Descending Indianapolis Center
02:33AM 36.8781 -83.5853 261° West 257 296 8,600 -1,380 Descending Indianapolis Center
02:34AM 36.8667 -83.6719 261° West 253 291 7,200 -1,260 Descending Indianapolis Center
02:35AM 36.8561 -83.7497 260° West 235 270 6,100 -960 Descending Indianapolis Center
02:36AM 36.8464 -83.8236 261° West 220 253 5,300 -960 Descending Indianapolis Center
02:37AM 36.8358 -83.9003 260° West 221 254 4,200 -660 Descending Indianapolis Center
02:38AM 36.8256 -83.9736 260° West 219 252 4,000 -240 Descending Indianapolis Center